sensor_id;sensor_type;location;lat;lon;timestamp;P1;durP1;ratioP1;P2;durP2;ratioP2
71196;SDS011;58918;51.652;4.864;2022-09-12T00:01:17;5.80;;;3.17;;
71196;SDS011;58918;51.652;4.864;2022-09-12T00:03:44;6.97;;;3.10;;
71196;SDS011;58918;51.652;4.864;2022-09-12T00:06:19;5.88;;;3.03;;
71196;SDS011;58918;51.652;4.864;2022-09-12T00:08:48;5.68;;;3.25;;
71196;SDS011;58918;51.652;4.864;2022-09-12T00:11:16;5.03;;;3.10;;
71196;SDS011;58918;51.652;4.864;2022-09-12T00:13:43;6.47;;;3.35;;
71196;SDS011;58918;51.652;4.864;2022-09-12T00:16:14;6.53;;;3.20;;
71196;SDS011;58918;51.652;4.864;2022-09-12T00:18:42;5.28;;;3.25;;
71196;SDS011;58918;51.652;4.864;2022-09-12T00:21:11;6.68;;;3.42;;
71196;SDS011;58918;51.652;4.864;2022-09-12T00:23:39;5.32;;;3.22;;
71196;SDS011;58918;51.652;4.864;2022-09-12T00:26:06;6.60;;;2.88;;
71196;SDS011;58918;51.652;4.864;2022-09-12T00:28:34;7.60;;;3.17;;
71196;SDS011;58918;51.652;4.864;2022-09-12T00:31:05;7.55;;;3.45;;
71196;SDS011;58918;51.652;4.864;2022-09-12T00:33:33;4.60;;;2.95;;
71196;SDS011;58918;51.652;4.864;2022-09-12T00:36:04;5.82;;;3.67;;
71196;SDS011;58918;51.652;4.864;2022-09-12T00:38:32;5.72;;;3.20;;
71196;SDS011;58918;51.652;4.864;2022-09-12T00:43:32;5.47;;;3.67;;
71196;SDS011;58918;51.652;4.864;2022-09-12T00:46:46;6.03;;;3.15;;
71196;SDS011;58918;51.652;4.864;2022-09-12T00:48:49;5.95;;;2.90;;
71196;SDS011;58918;51.652;4.864;2022-09-12T00:51:18;6.00;;;3.10;;
71196;SDS011;58918;51.652;4.864;2022-09-12T00:53:45;5.10;;;3.08;;
71196;SDS011;58918;51.652;4.864;2022-09-12T00:56:14;5.43;;;3.22;;
71196;SDS011;58918;51.652;4.864;2022-09-12T00:59:01;5.78;;;3.33;;
71196;SDS011;58918;51.652;4.864;2022-09-12T01:01:30;6.95;;;3.42;;
71196;SDS011;58918;51.652;4.864;2022-09-12T01:03:58;5.57;;;3.13;;
71196;SDS011;58918;51.652;4.864;2022-09-12T01:06:29;5.90;;;3.03;;
71196;SDS011;58918;51.652;4.864;2022-09-12T01:08:58;6.07;;;3.28;;
71196;SDS011;58918;51.652;4.864;2022-09-12T01:11:29;5.93;;;3.20;;
71196;SDS011;58918;51.652;4.864;2022-09-12T01:13:56;5.05;;;3.22;;
71196;SDS011;58918;51.652;4.864;2022-09-12T01:16:24;4.95;;;3.00;;
71196;SDS011;58918;51.652;4.864;2022-09-12T01:31:23;6.40;;;3.20;;
71196;SDS011;58918;51.652;4.864;2022-09-12T01:34:01;6.63;;;3.20;;
71196;SDS011;58918;51.652;4.864;2022-09-12T01:36:40;5.75;;;3.10;;
71196;SDS011;58918;51.652;4.864;2022-09-12T01:39:13;4.95;;;3.03;;
71196;SDS011;58918;51.652;4.864;2022-09-12T01:41:49;6.70;;;3.80;;
71196;SDS011;58918;51.652;4.864;2022-09-12T01:46:47;10.38;;;4.30;;
71196;SDS011;58918;51.652;4.864;2022-09-12T01:52:09;5.63;;;3.05;;
71196;SDS011;58918;51.652;4.864;2022-09-12T01:54:53;7.70;;;3.40;;
71196;SDS011;58918;51.652;4.864;2022-09-12T01:57:30;5.70;;;3.10;;
71196;SDS011;58918;51.652;4.864;2022-09-12T01:59:59;6.47;;;3.08;;
71196;SDS011;58918;51.652;4.864;2022-09-12T02:02:29;5.57;;;3.13;;
71196;SDS011;58918;51.652;4.864;2022-09-12T02:07:36;5.97;;;3.53;;
71196;SDS011;58918;51.652;4.864;2022-09-12T02:10:22;5.10;;;3.20;;
71196;SDS011;58918;51.652;4.864;2022-09-12T02:13:01;6.68;;;3.60;;
71196;SDS011;58918;51.652;4.864;2022-09-12T02:15:35;5.35;;;3.40;;
71196;SDS011;58918;51.652;4.864;2022-09-12T02:18:03;5.40;;;3.42;;
71196;SDS011;58918;51.652;4.864;2022-09-12T02:20:36;5.70;;;3.05;;
71196;SDS011;58918;51.652;4.864;2022-09-12T02:23:20;5.47;;;3.60;;
71196;SDS011;58918;51.652;4.864;2022-09-12T02:25:50;5.88;;;3.60;;
71196;SDS011;58918;51.652;4.864;2022-09-12T02:28:38;5.00;;;3.20;;
71196;SDS011;58918;51.652;4.864;2022-09-12T02:36:14;5.88;;;3.20;;
71196;SDS011;58918;51.652;4.864;2022-09-12T02:38:47;6.30;;;3.40;;
71196;SDS011;58918;51.652;4.864;2022-09-12T02:41:18;6.28;;;3.85;;
71196;SDS011;58918;51.652;4.864;2022-09-12T02:43:46;7.13;;;3.40;;
71196;SDS011;58918;51.652;4.864;2022-09-12T02:46:35;6.15;;;3.90;;
71196;SDS011;58918;51.652;4.864;2022-09-12T02:49:03;6.60;;;3.63;;
71196;SDS011;58918;51.652;4.864;2022-09-12T02:51:30;5.88;;;3.28;;
71196;SDS011;58918;51.652;4.864;2022-09-12T02:53:58;6.90;;;3.90;;
71196;SDS011;58918;51.652;4.864;2022-09-12T02:56:26;6.50;;;4.00;;
71196;SDS011;58918;51.652;4.864;2022-09-12T02:58:54;6.65;;;3.97;;
71196;SDS011;58918;51.652;4.864;2022-09-12T03:04:04;6.22;;;3.60;;
71196;SDS011;58918;51.652;4.864;2022-09-12T03:09:08;6.38;;;4.03;;
71196;SDS011;58918;51.652;4.864;2022-09-12T03:11:42;6.97;;;3.72;;
71196;SDS011;58918;51.652;4.864;2022-09-12T03:14:14;6.00;;;3.80;;
71196;SDS011;58918;51.652;4.864;2022-09-12T03:19:25;6.00;;;3.50;;
71196;SDS011;58918;51.652;4.864;2022-09-12T03:22:02;6.53;;;3.42;;
71196;SDS011;58918;51.652;4.864;2022-09-12T03:24:42;8.60;;;3.95;;
71196;SDS011;58918;51.652;4.864;2022-09-12T03:32:04;7.90;;;3.47;;
71196;SDS011;58918;51.652;4.864;2022-09-12T03:34:32;7.38;;;4.18;;
71196;SDS011;58918;51.652;4.864;2022-09-12T03:36:59;6.70;;;3.97;;
71196;SDS011;58918;51.652;4.864;2022-09-12T03:39:26;7.05;;;3.78;;
71196;SDS011;58918;51.652;4.864;2022-09-12T03:41:54;6.47;;;4.05;;
71196;SDS011;58918;51.652;4.864;2022-09-12T03:44:21;6.55;;;3.67;;
71196;SDS011;58918;51.652;4.864;2022-09-12T03:46:48;8.48;;;4.85;;
71196;SDS011;58918;51.652;4.864;2022-09-12T03:49:16;15.00;;;4.38;;
71196;SDS011;58918;51.652;4.864;2022-09-12T03:51:43;9.50;;;3.83;;
71196;SDS011;58918;51.652;4.864;2022-09-12T03:54:10;9.45;;;3.38;;
71196;SDS011;58918;51.652;4.864;2022-09-12T03:56:37;7.55;;;3.58;;
71196;SDS011;58918;51.652;4.864;2022-09-12T03:59:06;6.38;;;3.33;;
71196;SDS011;58918;51.652;4.864;2022-09-12T04:01:33;9.32;;;3.70;;
71196;SDS011;58918;51.652;4.864;2022-09-12T04:04:02;5.40;;;3.38;;
71196;SDS011;58918;51.652;4.864;2022-09-12T04:06:29;7.28;;;3.58;;
71196;SDS011;58918;51.652;4.864;2022-09-12T04:08:57;6.45;;;3.80;;
71196;SDS011;58918;51.652;4.864;2022-09-12T04:11:24;8.32;;;4.00;;
71196;SDS011;58918;51.652;4.864;2022-09-12T04:13:51;8.45;;;4.00;;
71196;SDS011;58918;51.652;4.864;2022-09-12T04:16:18;9.07;;;4.45;;
71196;SDS011;58918;51.652;4.864;2022-09-12T04:18:46;7.53;;;4.10;;
71196;SDS011;58918;51.652;4.864;2022-09-12T04:21:15;9.40;;;4.50;;
71196;SDS011;58918;51.652;4.864;2022-09-12T04:23:42;8.93;;;4.65;;
71196;SDS011;58918;51.652;4.864;2022-09-12T04:26:10;7.70;;;4.53;;
71196;SDS011;58918;51.652;4.864;2022-09-12T04:28:39;9.40;;;5.03;;
71196;SDS011;58918;51.652;4.864;2022-09-12T04:31:14;9.38;;;4.53;;
71196;SDS011;58918;51.652;4.864;2022-09-12T04:33:45;13.45;;;4.60;;
71196;SDS011;58918;51.652;4.864;2022-09-12T04:36:14;9.65;;;4.70;;
71196;SDS011;58918;51.652;4.864;2022-09-12T04:38:42;10.50;;;4.53;;
71196;SDS011;58918;51.652;4.864;2022-09-12T04:41:13;7.47;;;4.60;;
71196;SDS011;58918;51.652;4.864;2022-09-12T04:43:41;10.60;;;4.80;;
71196;SDS011;58918;51.652;4.864;2022-09-12T04:46:09;7.72;;;4.20;;
71196;SDS011;58918;51.652;4.864;2022-09-12T04:48:36;8.80;;;4.68;;
71196;SDS011;58918;51.652;4.864;2022-09-12T04:51:08;6.53;;;4.13;;
71196;SDS011;58918;51.652;4.864;2022-09-12T04:53:36;7.82;;;4.35;;
71196;SDS011;58918;51.652;4.864;2022-09-12T04:56:03;7.03;;;3.88;;
71196;SDS011;58918;51.652;4.864;2022-09-12T04:58:31;8.32;;;4.30;;
71196;SDS011;58918;51.652;4.864;2022-09-12T05:01:17;9.95;;;4.43;;
71196;SDS011;58918;51.652;4.864;2022-09-12T05:03:44;6.30;;;3.70;;
71196;SDS011;58918;51.652;4.864;2022-09-12T05:06:13;7.18;;;4.18;;
71196;SDS011;58918;51.652;4.864;2022-09-12T05:08:40;9.32;;;4.32;;
71196;SDS011;58918;51.652;4.864;2022-09-12T05:11:12;7.00;;;4.50;;
71196;SDS011;58918;51.652;4.864;2022-09-12T05:13:40;8.50;;;4.00;;
71196;SDS011;58918;51.652;4.864;2022-09-12T05:16:09;6.82;;;4.38;;
71196;SDS011;58918;51.652;4.864;2022-09-12T05:18:36;6.90;;;3.78;;
71196;SDS011;58918;51.652;4.864;2022-09-12T05:21:05;7.43;;;4.10;;
71196;SDS011;58918;51.652;4.864;2022-09-12T05:23:33;7.85;;;4.28;;
71196;SDS011;58918;51.652;4.864;2022-09-12T05:26:00;9.90;;;4.25;;
71196;SDS011;58918;51.652;4.864;2022-09-12T05:28:29;8.13;;;4.32;;
71196;SDS011;58918;51.652;4.864;2022-09-12T05:33:27;6.93;;;3.97;;
71196;SDS011;58918;51.652;4.864;2022-09-12T05:35:54;8.80;;;4.45;;
71196;SDS011;58918;51.652;4.864;2022-09-12T05:38:21;7.72;;;4.03;;
71196;SDS011;58918;51.652;4.864;2022-09-12T05:40:51;7.18;;;4.53;;
71196;SDS011;58918;51.652;4.864;2022-09-12T05:43:18;7.50;;;3.97;;
71196;SDS011;58918;51.652;4.864;2022-09-12T05:45:45;5.68;;;3.72;;
71196;SDS011;58918;51.652;4.864;2022-09-12T05:48:12;7.15;;;3.97;;
71196;SDS011;58918;51.652;4.864;2022-09-12T05:50:39;8.23;;;4.10;;
71196;SDS011;58918;51.652;4.864;2022-09-12T05:53:07;5.72;;;3.67;;
71196;SDS011;58918;51.652;4.864;2022-09-12T05:55:34;6.43;;;3.80;;
71196;SDS011;58918;51.652;4.864;2022-09-12T05:58:02;6.47;;;3.70;;
71196;SDS011;58918;51.652;4.864;2022-09-12T06:00:29;7.20;;;3.97;;
71196;SDS011;58918;51.652;4.864;2022-09-12T06:02:58;6.55;;;3.78;;
71196;SDS011;58918;51.652;4.864;2022-09-12T06:05:26;7.03;;;3.78;;
71196;SDS011;58918;51.652;4.864;2022-09-12T06:07:53;7.30;;;4.13;;
71196;SDS011;58918;51.652;4.864;2022-09-12T06:10:20;6.50;;;3.47;;
71196;SDS011;58918;51.652;4.864;2022-09-12T06:12:48;7.68;;;3.95;;
71196;SDS011;58918;51.652;4.864;2022-09-12T06:15:15;8.13;;;4.38;;
71196;SDS011;58918;51.652;4.864;2022-09-12T06:17:43;6.93;;;3.83;;
71196;SDS011;58918;51.652;4.864;2022-09-12T06:20:16;6.60;;;3.92;;
71196;SDS011;58918;51.652;4.864;2022-09-12T06:22:45;5.93;;;3.83;;
71196;SDS011;58918;51.652;4.864;2022-09-12T06:25:13;7.95;;;3.70;;
71196;SDS011;58918;51.652;4.864;2022-09-12T06:27:40;7.78;;;3.72;;
71196;SDS011;58918;51.652;4.864;2022-09-12T06:30:07;8.15;;;3.70;;
71196;SDS011;58918;51.652;4.864;2022-09-12T06:32:34;6.00;;;3.65;;
71196;SDS011;58918;51.652;4.864;2022-09-12T06:35:02;6.22;;;3.75;;
71196;SDS011;58918;51.652;4.864;2022-09-12T06:37:30;8.18;;;4.60;;
71196;SDS011;58918;51.652;4.864;2022-09-12T06:39:57;5.53;;;3.60;;
71196;SDS011;58918;51.652;4.864;2022-09-12T06:42:27;7.30;;;4.63;;
71196;SDS011;58918;51.652;4.864;2022-09-12T06:44:54;7.43;;;4.55;;
71196;SDS011;58918;51.652;4.864;2022-09-12T06:47:21;7.32;;;4.32;;
71196;SDS011;58918;51.652;4.864;2022-09-12T06:49:48;7.05;;;4.03;;
71196;SDS011;58918;51.652;4.864;2022-09-12T06:52:16;8.25;;;4.00;;
71196;SDS011;58918;51.652;4.864;2022-09-12T06:54:43;6.90;;;4.20;;
71196;SDS011;58918;51.652;4.864;2022-09-12T06:57:11;6.60;;;4.25;;
71196;SDS011;58918;51.652;4.864;2022-09-12T06:59:38;6.57;;;3.58;;
71196;SDS011;58918;51.652;4.864;2022-09-12T07:02:07;6.38;;;4.05;;
71196;SDS011;58918;51.652;4.864;2022-09-12T07:04:35;8.35;;;4.18;;
71196;SDS011;58918;51.652;4.864;2022-09-12T07:07:02;7.20;;;3.95;;
71196;SDS011;58918;51.652;4.864;2022-09-12T07:09:29;6.82;;;3.80;;
71196;SDS011;58918;51.652;4.864;2022-09-12T07:11:56;6.30;;;3.63;;
71196;SDS011;58918;51.652;4.864;2022-09-12T07:14:23;8.93;;;3.80;;
71196;SDS011;58918;51.652;4.864;2022-09-12T07:16:51;6.45;;;3.50;;
71196;SDS011;58918;51.652;4.864;2022-09-12T07:19:18;6.25;;;3.63;;
71196;SDS011;58918;51.652;4.864;2022-09-12T07:21:45;7.35;;;3.78;;
71196;SDS011;58918;51.652;4.864;2022-09-12T07:24:12;6.32;;;3.67;;
71196;SDS011;58918;51.652;4.864;2022-09-12T07:26:40;6.97;;;3.85;;
71196;SDS011;58918;51.652;4.864;2022-09-12T07:29:11;6.07;;;3.20;;
71196;SDS011;58918;51.652;4.864;2022-09-12T07:31:59;7.10;;;3.47;;
71196;SDS011;58918;51.652;4.864;2022-09-12T07:34:30;6.78;;;3.60;;
71196;SDS011;58918;51.652;4.864;2022-09-12T07:36:57;6.30;;;4.03;;
71196;SDS011;58918;51.652;4.864;2022-09-12T07:39:24;8.43;;;4.00;;
71196;SDS011;58918;51.652;4.864;2022-09-12T07:41:51;7.28;;;3.80;;
71196;SDS011;58918;51.652;4.864;2022-09-12T07:44:19;7.40;;;4.28;;
71196;SDS011;58918;51.652;4.864;2022-09-12T07:46:47;6.88;;;3.85;;
71196;SDS011;58918;51.652;4.864;2022-09-12T07:49:15;7.70;;;3.85;;
71196;SDS011;58918;51.652;4.864;2022-09-12T07:51:42;6.25;;;3.63;;
71196;SDS011;58918;51.652;4.864;2022-09-12T07:54:10;6.03;;;3.70;;
71196;SDS011;58918;51.652;4.864;2022-09-12T07:56:37;6.35;;;3.95;;
71196;SDS011;58918;51.652;4.864;2022-09-12T07:59:04;6.40;;;3.92;;
71196;SDS011;58918;51.652;4.864;2022-09-12T08:01:32;5.40;;;3.45;;
71196;SDS011;58918;51.652;4.864;2022-09-12T08:03:59;6.25;;;3.75;;
71196;SDS011;58918;51.652;4.864;2022-09-12T08:06:27;6.78;;;3.83;;
71196;SDS011;58918;51.652;4.864;2022-09-12T08:08:56;6.68;;;3.72;;
71196;SDS011;58918;51.652;4.864;2022-09-12T08:11:24;6.70;;;3.75;;
71196;SDS011;58918;51.652;4.864;2022-09-12T08:13:53;5.68;;;3.80;;
71196;SDS011;58918;51.652;4.864;2022-09-12T08:16:23;5.57;;;3.60;;
71196;SDS011;58918;51.652;4.864;2022-09-12T08:18:51;7.38;;;3.97;;
71196;SDS011;58918;51.652;4.864;2022-09-12T08:21:19;7.45;;;3.90;;
71196;SDS011;58918;51.652;4.864;2022-09-12T08:23:47;6.75;;;4.18;;
71196;SDS011;58918;51.652;4.864;2022-09-12T08:26:17;6.32;;;3.75;;
71196;SDS011;58918;51.652;4.864;2022-09-12T08:28:44;8.23;;;4.07;;
71196;SDS011;58918;51.652;4.864;2022-09-12T08:31:12;6.13;;;3.45;;
71196;SDS011;58918;51.652;4.864;2022-09-12T08:33:40;7.55;;;3.83;;
71196;SDS011;58918;51.652;4.864;2022-09-12T08:36:09;6.78;;;3.97;;
71196;SDS011;58918;51.652;4.864;2022-09-12T08:38:37;8.52;;;4.20;;
71196;SDS011;58918;51.652;4.864;2022-09-12T08:46:28;7.25;;;3.72;;
71196;SDS011;58918;51.652;4.864;2022-09-12T08:48:58;6.82;;;3.88;;
71196;SDS011;58918;51.652;4.864;2022-09-12T08:51:26;6.35;;;3.78;;
71196;SDS011;58918;51.652;4.864;2022-09-12T08:53:54;8.57;;;4.20;;
71196;SDS011;58918;51.652;4.864;2022-09-12T08:56:23;7.15;;;4.07;;
71196;SDS011;58918;51.652;4.864;2022-09-12T08:58:56;6.53;;;3.72;;
71196;SDS011;58918;51.652;4.864;2022-09-12T09:01:31;6.95;;;3.45;;
71196;SDS011;58918;51.652;4.864;2022-09-12T09:07:01;6.10;;;3.78;;
71196;SDS011;58918;51.652;4.864;2022-09-12T09:17:41;6.30;;;3.33;;
71196;SDS011;58918;51.652;4.864;2022-09-12T09:20:28;6.47;;;3.38;;
71196;SDS011;58918;51.652;4.864;2022-09-12T09:22:59;5.80;;;3.60;;
71196;SDS011;58918;51.652;4.864;2022-09-12T09:25:36;8.52;;;3.72;;
71196;SDS011;58918;51.652;4.864;2022-09-12T09:28:12;7.15;;;3.97;;
71196;SDS011;58918;51.652;4.864;2022-09-12T09:30:41;7.35;;;3.78;;
71196;SDS011;58918;51.652;4.864;2022-09-12T09:33:14;6.07;;;3.63;;
71196;SDS011;58918;51.652;4.864;2022-09-12T09:35:45;6.65;;;3.70;;
71196;SDS011;58918;51.652;4.864;2022-09-12T09:38:21;7.22;;;3.70;;
71196;SDS011;58918;51.652;4.864;2022-09-12T09:40:53;6.07;;;3.72;;
71196;SDS011;58918;51.652;4.864;2022-09-12T09:43:24;5.55;;;3.58;;
71196;SDS011;58918;51.652;4.864;2022-09-12T09:45:55;5.88;;;3.33;;
71196;SDS011;58918;51.652;4.864;2022-09-12T09:48:32;6.35;;;3.15;;
71196;SDS011;58918;51.652;4.864;2022-09-12T09:51:01;5.60;;;3.50;;
71196;SDS011;58918;51.652;4.864;2022-09-12T09:56:04;7.40;;;3.85;;
71196;SDS011;58918;51.652;4.864;2022-09-12T09:58:33;6.22;;;3.20;;
71196;SDS011;58918;51.652;4.864;2022-09-12T10:01:04;6.15;;;3.22;;
71196;SDS011;58918;51.652;4.864;2022-09-12T10:03:33;5.30;;;2.88;;
71196;SDS011;58918;51.652;4.864;2022-09-12T10:06:20;6.13;;;2.88;;
71196;SDS011;58918;51.652;4.864;2022-09-12T10:08:48;6.10;;;3.10;;
71196;SDS011;58918;51.652;4.864;2022-09-12T10:16:20;6.30;;;3.10;;
71196;SDS011;58918;51.652;4.864;2022-09-12T10:18:48;4.93;;;2.58;;
71196;SDS011;58918;51.652;4.864;2022-09-12T10:26:32;5.35;;;2.70;;
71196;SDS011;58918;51.652;4.864;2022-09-12T10:29:02;5.30;;;2.58;;
71196;SDS011;58918;51.652;4.864;2022-09-12T10:34:33;6.28;;;3.05;;
71196;SDS011;58918;51.652;4.864;2022-09-12T10:37:05;5.38;;;2.50;;
71196;SDS011;58918;51.652;4.864;2022-09-12T10:39:33;6.05;;;2.20;;
71196;SDS011;58918;51.652;4.864;2022-09-12T10:42:01;5.72;;;2.75;;
71196;SDS011;58918;51.652;4.864;2022-09-12T10:44:30;5.30;;;2.60;;
71196;SDS011;58918;51.652;4.864;2022-09-12T10:46:57;4.88;;;2.50;;
71196;SDS011;58918;51.652;4.864;2022-09-12T10:49:29;5.68;;;2.65;;
71196;SDS011;58918;51.652;4.864;2022-09-12T10:51:57;6.30;;;2.50;;
71196;SDS011;58918;51.652;4.864;2022-09-12T10:54:42;3.72;;;2.15;;
71196;SDS011;58918;51.652;4.864;2022-09-12T11:00:08;4.13;;;2.50;;
71196;SDS011;58918;51.652;4.864;2022-09-12T11:05:12;4.22;;;2.00;;
71196;SDS011;58918;51.652;4.864;2022-09-12T11:07:48;4.60;;;2.53;;
71196;SDS011;58918;51.652;4.864;2022-09-12T11:15:40;4.68;;;2.40;;
71196;SDS011;58918;51.652;4.864;2022-09-12T11:18:13;4.50;;;2.47;;
71196;SDS011;58918;51.652;4.864;2022-09-12T11:20:56;4.55;;;2.30;;
71196;SDS011;58918;51.652;4.864;2022-09-12T11:37:14;4.97;;;2.42;;
71196;SDS011;58918;51.652;4.864;2022-09-12T11:39:44;5.22;;;2.38;;
71196;SDS011;58918;51.652;4.864;2022-09-12T11:42:21;4.38;;;2.42;;
71196;SDS011;58918;51.652;4.864;2022-09-12T11:44:52;4.40;;;2.47;;
71196;SDS011;58918;51.652;4.864;2022-09-12T11:47:21;4.03;;;2.40;;
71196;SDS011;58918;51.652;4.864;2022-09-12T11:49:49;5.03;;;2.45;;
71196;SDS011;58918;51.652;4.864;2022-09-12T11:52:18;4.20;;;2.30;;
71196;SDS011;58918;51.652;4.864;2022-09-12T11:55:21;5.18;;;2.40;;
71196;SDS011;58918;51.652;4.864;2022-09-12T11:57:43;4.65;;;2.10;;
71196;SDS011;58918;51.652;4.864;2022-09-12T12:02:49;3.88;;;2.13;;
71196;SDS011;58918;51.652;4.864;2022-09-12T12:05:25;7.95;;;2.45;;
71196;SDS011;58918;51.652;4.864;2022-09-12T12:07:56;4.00;;;2.00;;
71196;SDS011;58918;51.652;4.864;2022-09-12T12:10:25;4.32;;;2.17;;
71196;SDS011;58918;51.652;4.864;2022-09-12T12:12:53;3.95;;;2.13;;
71196;SDS011;58918;51.652;4.864;2022-09-12T12:15:21;5.38;;;2.00;;
71196;SDS011;58918;51.652;4.864;2022-09-12T12:20:17;3.85;;;1.80;;
71196;SDS011;58918;51.652;4.864;2022-09-12T12:22:51;4.47;;;2.17;;
71196;SDS011;58918;51.652;4.864;2022-09-12T12:27:56;3.72;;;1.95;;
71196;SDS011;58918;51.652;4.864;2022-09-12T12:33:06;4.88;;;2.20;;
71196;SDS011;58918;51.652;4.864;2022-09-12T12:43:43;4.45;;;1.80;;
71196;SDS011;58918;51.652;4.864;2022-09-12T12:46:14;5.00;;;2.28;;
71196;SDS011;58918;51.652;4.864;2022-09-12T12:53:49;5.00;;;2.33;;
71196;SDS011;58918;51.652;4.864;2022-09-12T12:56:24;5.20;;;2.22;;
71196;SDS011;58918;51.652;4.864;2022-09-12T12:58:59;4.32;;;2.05;;
71196;SDS011;58918;51.652;4.864;2022-09-12T13:01:27;4.28;;;2.08;;
71196;SDS011;58918;51.652;4.864;2022-09-12T13:03:55;4.00;;;2.10;;
71196;SDS011;58918;51.652;4.864;2022-09-12T13:08:59;4.38;;;1.67;;
71196;SDS011;58918;51.652;4.864;2022-09-12T13:11:28;4.13;;;2.05;;
71196;SDS011;58918;51.652;4.864;2022-09-12T13:13:57;4.35;;;1.95;;
71196;SDS011;58918;51.652;4.864;2022-09-12T13:16:36;3.58;;;2.00;;
71196;SDS011;58918;51.652;4.864;2022-09-12T13:19:13;3.92;;;2.20;;
71196;SDS011;58918;51.652;4.864;2022-09-12T13:21:59;4.30;;;2.05;;
71196;SDS011;58918;51.652;4.864;2022-09-12T13:24:27;4.30;;;2.25;;
71196;SDS011;58918;51.652;4.864;2022-09-12T13:26:54;4.25;;;2.13;;
71196;SDS011;58918;51.652;4.864;2022-09-12T13:29:23;4.90;;;2.40;;
71196;SDS011;58918;51.652;4.864;2022-09-12T13:31:57;5.38;;;2.17;;
71196;SDS011;58918;51.652;4.864;2022-09-12T13:39:48;4.20;;;2.00;;
71196;SDS011;58918;51.652;4.864;2022-09-12T13:42:36;5.22;;;2.47;;
71196;SDS011;58918;51.652;4.864;2022-09-12T13:47:42;4.38;;;2.20;;
71196;SDS011;58918;51.652;4.864;2022-09-12T13:50:19;5.63;;;2.28;;
71196;SDS011;58918;51.652;4.864;2022-09-12T13:52:49;4.38;;;1.90;;
71196;SDS011;58918;51.652;4.864;2022-09-12T13:56:00;4.75;;;2.30;;
71196;SDS011;58918;51.652;4.864;2022-09-12T13:58:15;3.65;;;1.92;;
71196;SDS011;58918;51.652;4.864;2022-09-12T14:00:45;3.60;;;1.90;;
71196;SDS011;58918;51.652;4.864;2022-09-12T14:03:26;4.93;;;2.20;;
71196;SDS011;58918;51.652;4.864;2022-09-12T14:08:46;4.15;;;2.05;;
71196;SDS011;58918;51.652;4.864;2022-09-12T14:11:22;4.13;;;2.10;;
71196;SDS011;58918;51.652;4.864;2022-09-12T14:13:50;4.47;;;2.00;;
71196;SDS011;58918;51.652;4.864;2022-09-12T14:16:18;4.47;;;2.10;;
71196;SDS011;58918;51.652;4.864;2022-09-12T14:18:49;3.60;;;1.90;;
71196;SDS011;58918;51.652;4.864;2022-09-12T14:21:33;4.28;;;1.80;;
71196;SDS011;58918;51.652;4.864;2022-09-12T14:24:02;4.85;;;2.08;;
71196;SDS011;58918;51.652;4.864;2022-09-12T14:26:32;3.78;;;1.98;;
71196;SDS011;58918;51.652;4.864;2022-09-12T14:29:00;4.00;;;1.88;;
71196;SDS011;58918;51.652;4.864;2022-09-12T14:31:34;4.65;;;1.90;;
71196;SDS011;58918;51.652;4.864;2022-09-12T14:36:43;4.68;;;1.95;;
71196;SDS011;58918;51.652;4.864;2022-09-12T14:39:30;3.22;;;1.90;;
71196;SDS011;58918;51.652;4.864;2022-09-12T14:42:17;5.90;;;2.00;;
71196;SDS011;58918;51.652;4.864;2022-09-12T14:44:57;5.05;;;1.83;;
71196;SDS011;58918;51.652;4.864;2022-09-12T14:47:27;7.25;;;1.95;;
71196;SDS011;58918;51.652;4.864;2022-09-12T14:49:58;4.05;;;1.75;;
71196;SDS011;58918;51.652;4.864;2022-09-12T14:52:29;4.00;;;2.00;;
71196;SDS011;58918;51.652;4.864;2022-09-12T14:55:02;4.57;;;2.10;;
71196;SDS011;58918;51.652;4.864;2022-09-12T14:57:31;3.60;;;1.88;;
71196;SDS011;58918;51.652;4.864;2022-09-12T15:00:09;4.32;;;2.05;;
71196;SDS011;58918;51.652;4.864;2022-09-12T15:02:44;6.07;;;2.20;;
71196;SDS011;58918;51.652;4.864;2022-09-12T15:07:42;3.25;;;1.85;;
71196;SDS011;58918;51.652;4.864;2022-09-12T15:15:36;6.07;;;2.00;;
71196;SDS011;58918;51.652;4.864;2022-09-12T15:18:04;3.78;;;2.08;;
71196;SDS011;58918;51.652;4.864;2022-09-12T15:20:35;4.10;;;2.03;;
71196;SDS011;58918;51.652;4.864;2022-09-12T15:23:04;5.40;;;2.47;;
71196;SDS011;58918;51.652;4.864;2022-09-12T15:25:32;4.18;;;2.00;;
71196;SDS011;58918;51.652;4.864;2022-09-12T15:27:59;4.07;;;1.80;;
71196;SDS011;58918;51.652;4.864;2022-09-12T15:30:27;4.10;;;1.95;;
71196;SDS011;58918;51.652;4.864;2022-09-12T15:32:54;4.45;;;1.77;;
71196;SDS011;58918;51.652;4.864;2022-09-12T15:35:22;3.55;;;1.90;;
71196;SDS011;58918;51.652;4.864;2022-09-12T15:37:50;3.55;;;1.95;;
71196;SDS011;58918;51.652;4.864;2022-09-12T15:40:17;3.58;;;1.73;;
71196;SDS011;58918;51.652;4.864;2022-09-12T15:42:45;4.50;;;1.77;;
71196;SDS011;58918;51.652;4.864;2022-09-12T15:45:19;4.32;;;2.00;;
71196;SDS011;58918;51.652;4.864;2022-09-12T15:47:47;4.03;;;2.03;;
71196;SDS011;58918;51.652;4.864;2022-09-12T15:50:14;3.97;;;1.85;;
71196;SDS011;58918;51.652;4.864;2022-09-12T15:52:42;4.50;;;1.67;;
71196;SDS011;58918;51.652;4.864;2022-09-12T15:55:43;3.60;;;1.67;;
71196;SDS011;58918;51.652;4.864;2022-09-12T15:58:02;3.70;;;1.90;;
71196;SDS011;58918;51.652;4.864;2022-09-12T16:00:32;3.92;;;1.90;;
71196;SDS011;58918;51.652;4.864;2022-09-12T16:02:59;3.53;;;1.83;;
71196;SDS011;58918;51.652;4.864;2022-09-12T16:05:27;4.65;;;2.10;;
71196;SDS011;58918;51.652;4.864;2022-09-12T16:07:54;4.47;;;2.05;;
71196;SDS011;58918;51.652;4.864;2022-09-12T16:10:26;5.47;;;1.85;;
71196;SDS011;58918;51.652;4.864;2022-09-12T16:12:54;3.55;;;1.70;;
71196;SDS011;58918;51.652;4.864;2022-09-12T16:15:25;4.43;;;2.17;;
71196;SDS011;58918;51.652;4.864;2022-09-12T16:17:52;3.40;;;1.70;;
71196;SDS011;58918;51.652;4.864;2022-09-12T16:20:20;4.03;;;2.03;;
71196;SDS011;58918;51.652;4.864;2022-09-12T16:22:49;4.75;;;1.98;;
71196;SDS011;58918;51.652;4.864;2022-09-12T16:25:16;3.95;;;1.80;;
71196;SDS011;58918;51.652;4.864;2022-09-12T16:27:46;3.33;;;1.70;;
71196;SDS011;58918;51.652;4.864;2022-09-12T16:30:13;3.92;;;1.90;;
71196;SDS011;58918;51.652;4.864;2022-09-12T16:32:41;3.25;;;1.58;;
71196;SDS011;58918;51.652;4.864;2022-09-12T16:35:08;3.30;;;1.80;;
71196;SDS011;58918;51.652;4.864;2022-09-12T16:37:35;3.67;;;1.65;;
71196;SDS011;58918;51.652;4.864;2022-09-12T16:40:03;3.60;;;1.80;;
71196;SDS011;58918;51.652;4.864;2022-09-12T16:42:31;5.15;;;2.25;;
71196;SDS011;58918;51.652;4.864;2022-09-12T16:44:58;4.28;;;1.85;;
71196;SDS011;58918;51.652;4.864;2022-09-12T16:47:25;3.50;;;1.70;;
71196;SDS011;58918;51.652;4.864;2022-09-12T16:49:52;4.55;;;1.95;;
71196;SDS011;58918;51.652;4.864;2022-09-12T16:52:19;4.18;;;1.90;;
71196;SDS011;58918;51.652;4.864;2022-09-12T16:54:47;3.50;;;1.70;;
71196;SDS011;58918;51.652;4.864;2022-09-12T16:57:14;3.60;;;1.70;;
71196;SDS011;58918;51.652;4.864;2022-09-12T16:59:41;3.67;;;1.80;;
71196;SDS011;58918;51.652;4.864;2022-09-12T17:02:12;4.65;;;2.13;;
71196;SDS011;58918;51.652;4.864;2022-09-12T17:04:39;4.93;;;2.38;;
71196;SDS011;58918;51.652;4.864;2022-09-12T17:07:07;4.25;;;1.98;;
71196;SDS011;58918;51.652;4.864;2022-09-12T17:09:35;4.32;;;2.47;;
71196;SDS011;58918;51.652;4.864;2022-09-12T17:12:02;4.25;;;2.33;;
71196;SDS011;58918;51.652;4.864;2022-09-12T17:14:29;6.40;;;3.35;;
71196;SDS011;58918;51.652;4.864;2022-09-12T17:16:56;6.70;;;3.75;;
71196;SDS011;58918;51.652;4.864;2022-09-12T17:19:24;6.68;;;3.70;;
71196;SDS011;58918;51.652;4.864;2022-09-12T17:21:53;6.55;;;3.80;;
71196;SDS011;58918;51.652;4.864;2022-09-12T17:24:20;6.07;;;3.90;;
71196;SDS011;58918;51.652;4.864;2022-09-12T17:26:48;7.07;;;4.38;;
71196;SDS011;58918;51.652;4.864;2022-09-12T17:29:16;5.53;;;3.72;;
71196;SDS011;58918;51.652;4.864;2022-09-12T17:31:43;7.45;;;4.35;;
71196;SDS011;58918;51.652;4.864;2022-09-12T17:34:10;6.35;;;3.90;;